Time;durP1;ratioP1;P1;durP2;ratioP2;P2;SDS_P1;SDS_P2;PMS_P1;PMS_P2;Temp;Humidity;BMP_temperature;BMP_pressure;BME280_temperature;BME280_humidity;BME280_pressure;Samples;Min_cycle;Max_cycle;Signal;HPM_P1;HPM_P2
2022/07/20 00:01:45;;;;;;;4.23;3.83;;;31.90;50.90;;;;;;6189198;23;20699;-76
2022/07/20 00:04:11;;;;;;;5.73;4.37;;;31.80;50.80;;;;;;6163706;23;20868;-77
2022/07/20 00:06:38;;;;;;;4.30;3.90;;;31.80;50.80;;;;;;6164114;23;20458;-77
2022/07/20 00:11:48;;;;;;;5.80;4.50;;;31.70;50.80;;;;;;6188985;23;20425;-76
2022/07/20 00:14:14;;;;;;;4.90;4.50;;;31.70;50.80;;;;;;6215561;23;20371;-76
2022/07/20 00:16:46;;;;;;;4.30;3.67;;;31.70;50.80;;;;;;6215461;23;20366;-78
2022/07/20 00:19:15;;;;;;;4.30;3.90;;;31.70;50.80;;;;;;6214930;23;20509;-76
2022/07/20 00:21:41;;;;;;;4.10;3.80;;;31.60;50.80;;;;;;6188800;23;20738;-77
2022/07/20 00:24:09;;;;;;;5.20;4.70;;;31.60;50.80;;;;;;6164080;23;20384;-76
2022/07/20 00:26:35;;;;;;;7.23;4.90;;;31.60;50.80;;;;;;6163986;23;20415;-76
2022/07/20 00:29:04;;;;;;;4.90;4.47;;;31.60;50.80;;;;;;6164344;23;20433;-76
2022/07/20 00:31:30;;;;;;;4.87;4.33;;;31.60;50.80;;;;;;6188736;23;20411;-76
2022/07/20 00:33:56;;;;;;;4.50;4.10;;;31.60;50.80;;;;;;6139361;23;20407;-77
2022/07/20 00:36:24;;;;;;;4.83;4.20;;;31.50;50.70;;;;;;6164070;23;20925;-76
2022/07/20 00:38:53;;;;;;;4.43;4.03;;;31.50;50.70;;;;;;6188908;23;20402;-76
2022/07/20 00:41:18;;;;;;;5.00;4.13;;;31.50;50.70;;;;;;6189002;23;20890;-76
2022/07/20 00:44:05;;;;;;;4.27;3.97;;;31.50;50.70;;;;;;6189045;23;20372;-76
2022/07/20 00:46:42;;;;;;;4.43;3.70;;;31.40;50.60;;;;;;6188752;23;20356;-76
2022/07/20 00:49:12;;;;;;;4.80;4.40;;;31.40;50.60;;;;;;6163803;23;20425;-77
2022/07/20 00:51:40;;;;;;;5.10;4.27;;;31.40;50.60;;;;;;6215772;23;21142;-76
2022/07/20 00:54:07;;;;;;;5.23;4.73;;;31.40;50.60;;;;;;6190868;23;20869;-76
2022/07/20 00:56:34;;;;;;;4.83;4.40;;;31.30;50.50;;;;;;6217186;23;20363;-78
2022/07/20 00:59:08;;;;;;;4.63;4.20;;;31.30;50.50;;;;;;6190568;23;20407;-76
2022/07/20 01:01:34;;;;;;;4.80;4.40;;;31.30;50.50;;;;;;6190588;23;20438;-77
2022/07/20 01:04:01;;;;;;;6.30;4.10;;;31.30;50.50;;;;;;6190613;23;20465;-76
2022/07/20 01:06:28;;;;;;;4.30;4.00;;;31.30;50.50;;;;;;6190735;23;20383;-76
2022/07/20 01:08:54;;;;;;;4.77;4.37;;;31.30;50.60;;;;;;6217075;23;20819;-77
2022/07/20 01:11:20;;;;;;;7.27;4.40;;;31.20;51.10;;;;;;6165653;23;20407;-76
2022/07/20 01:13:49;;;;;;;4.83;4.43;;;31.20;50.50;;;;;;6191133;23;20813;-76
2022/07/20 01:16:15;;;;;;;5.60;4.27;;;31.20;50.60;;;;;;6190644;23;20892;-76
2022/07/20 01:18:41;;;;;;;4.40;4.00;;;31.10;50.50;;;;;;6216580;23;20399;-78
2022/07/20 01:21:10;;;;;;;4.37;3.97;;;31.10;50.50;;;;;;6186975;22;20437;-70
2022/07/20 01:23:36;;;;;;;5.77;3.93;;;31.10;50.50;;;;;;6214098;23;20754;-70
2022/07/20 01:26:05;;;;;;;5.37;4.30;;;31.10;50.50;;;;;;6214883;23;20841;-70
2022/07/20 01:28:34;;;;;;;5.80;4.73;;;31.10;50.50;;;;;;6215345;23;20363;-70
2022/07/20 01:31:02;;;;;;;4.73;4.33;;;31.00;50.50;;;;;;6215468;23;20384;-71
2022/07/20 01:33:28;;;;;;;4.50;4.10;;;31.00;50.50;;;;;;6188618;23;20860;-70
2022/07/20 01:35:59;;;;;;;4.67;4.27;;;31.00;50.50;;;;;;6215461;23;20375;-70
2022/07/20 01:38:25;;;;;;;4.93;4.27;;;31.00;50.50;;;;;;6214864;23;20352;-70
2022/07/20 01:40:51;;;;;;;4.87;4.37;;;30.90;50.40;;;;;;6213762;23;20920;-70
2022/07/20 01:43:18;;;;;;;4.70;3.90;;;30.90;50.40;;;;;;6163556;23;20963;-70
2022/07/20 01:45:44;;;;;;;4.17;3.87;;;30.90;50.40;;;;;;6215530;23;20379;-70
2022/07/20 01:48:11;;;;;;;5.70;3.90;;;30.90;50.40;;;;;;6215206;23;20822;-70
2022/07/20 01:50:39;;;;;;;4.63;4.10;;;30.90;50.50;;;;;;6215262;23;20805;-70
2022/07/20 01:53:11;;;;;;;4.90;4.40;;;30.80;50.40;;;;;;6188226;23;20418;-70
2022/07/20 01:55:39;;;;;;;5.00;4.60;;;30.80;50.40;;;;;;6163609;23;20376;-70
2022/07/20 01:58:10;;;;;;;6.70;4.33;;;30.80;51.00;;;;;;6214981;23;20733;-70
2022/07/20 02:00:36;;;;;;;4.50;4.10;;;30.80;50.50;;;;;;6139159;23;20435;-69
2022/07/20 02:03:02;;;;;;;4.93;4.43;;;30.80;50.50;;;;;;6214999;23;20882;-70
2022/07/20 02:05:31;;;;;;;4.37;3.97;;;30.70;50.40;;;;;;6187643;23;20381;-70
2022/07/20 02:07:57;;;;;;;6.70;4.40;;;30.70;50.40;;;;;;6187475;23;20905;-70
2022/07/20 02:10:25;;;;;;;6.03;4.37;;;30.70;50.40;;;;;;6188267;23;20426;-70
2022/07/20 02:12:53;;;;;;;4.60;4.00;;;30.70;50.50;;;;;;6187432;23;20379;-70
2022/07/20 02:18:08;;;;;;;5.83;4.93;;;30.60;50.60;;;;;;6214570;23;20403;-70
2022/07/20 02:20:41;;;;;;;6.17;5.57;;;30.60;50.60;;;;;;6214422;23;20422;-70
2022/07/20 02:23:11;;;;;;;4.27;3.87;;;30.60;50.60;;;;;;6214956;23;20498;-70
2022/07/20 02:25:42;;;;;;;4.60;4.20;;;30.50;50.60;;;;;;6188305;23;20469;-70
2022/07/20 02:28:10;;;;;;;5.40;4.90;;;30.50;50.60;;;;;;6214381;23;20450;-70
2022/07/20 02:30:37;;;;;;;4.73;4.30;;;30.50;50.60;;;;;;6214752;23;20402;-70
2022/07/20 02:33:05;;;;;;;4.83;4.27;;;30.50;50.70;;;;;;6188559;23;20371;-70
2022/07/20 02:35:31;;;;;;;5.27;4.80;;;30.50;50.70;;;;;;6214882;23;20418;-70
2022/07/20 02:38:00;;;;;;;5.83;4.80;;;30.40;50.70;;;;;;6214693;23;20392;-70
2022/07/20 02:40:26;;;;;;;4.80;4.40;;;30.40;50.70;;;;;;6212971;23;21002;-70
2022/07/20 02:42:52;;;;;;;5.10;4.70;;;30.40;50.70;;;;;;6213038;23;20470;-70
2022/07/20 02:45:18;;;;;;;5.23;4.50;;;30.40;50.70;;;;;;6187882;23;20379;-71
2022/07/20 02:47:46;;;;;;;5.47;4.63;;;30.40;50.80;;;;;;6214414;23;20367;-70
2022/07/20 02:50:13;;;;;;;5.03;4.50;;;30.40;50.90;;;;;;6163287;23;20415;-70
2022/07/20 02:53:00;;;;;;;4.23;3.70;;;30.30;50.80;;;;;;6156761;23;20391;-70
2022/07/20 02:55:27;;;;;;;4.87;4.47;;;30.30;50.90;;;;;;6163036;23;20406;-70
2022/07/20 02:57:53;;;;;;;4.90;4.50;;;30.30;50.90;;;;;;6214357;23;20438;-70
2022/07/20 03:00:19;;;;;;;5.00;4.50;;;30.30;50.90;;;;;;6187977;23;20438;-70
2022/07/20 03:02:46;;;;;;;4.87;4.47;;;30.30;51.00;;;;;;6188079;23;20367;-70
2022/07/20 03:05:13;;;;;;;4.37;4.00;;;30.20;50.90;;;;;;6163355;23;20876;-70
2022/07/20 03:07:42;;;;;;;5.00;4.50;;;30.20;51.00;;;;;;6214377;23;20837;-70
2022/07/20 03:10:11;;;;;;;4.70;4.10;;;30.20;50.90;;;;;;6214332;23;20537;-70
2022/07/20 03:12:37;;;;;;;3.80;3.50;;;30.20;51.00;;;;;;6214390;23;20360;-70
2022/07/20 03:15:04;;;;;;;4.50;4.10;;;30.20;51.00;;;;;;6214078;23;20399;-70
2022/07/20 03:17:33;;;;;;;4.00;3.70;;;30.20;51.00;;;;;;6214082;23;20713;-70
2022/07/20 03:19:59;;;;;;;5.30;4.33;;;30.20;51.00;;;;;;6187706;23;20439;-70
2022/07/20 03:22:25;;;;;;;6.40;4.23;;;30.10;50.90;;;;;;6213955;23;20391;-70
2022/07/20 03:24:51;;;;;;;4.90;4.40;;;30.10;50.80;;;;;;6214517;23;20421;-70
2022/07/20 03:27:17;;;;;;;4.13;3.73;;;30.10;50.80;;;;;;6212646;23;20399;-70
2022/07/20 03:29:45;;;;;;;4.20;3.83;;;30.10;50.80;;;;;;6212668;23;20191;-70
2022/07/20 03:32:14;;;;;;;5.00;4.20;;;30.10;50.80;;;;;;6214321;23;20370;-70
2022/07/20 03:34:42;;;;;;;4.20;3.90;;;30.10;50.80;;;;;;6214186;23;20387;-70
2022/07/20 03:37:08;;;;;;;5.70;4.17;;;30.10;50.80;;;;;;6213925;23;21235;-70
2022/07/20 03:39:36;;;;;;;4.70;4.10;;;30.00;50.80;;;;;;6187570;23;20829;-70
2022/07/20 03:42:04;;;;;;;4.73;4.30;;;30.00;50.80;;;;;;6187580;23;20463;-69
2022/07/20 03:44:30;;;;;;;5.03;4.00;;;30.00;50.80;;;;;;6188021;23;20363;-70
2022/07/20 03:46:56;;;;;;;4.57;4.17;;;30.00;51.30;;;;;;6214220;23;20425;-70
2022/07/20 03:49:22;;;;;;;4.50;4.10;;;30.00;50.80;;;;;;6213421;23;20488;-70
2022/07/20 03:51:51;;;;;;;4.57;4.20;;;29.90;50.70;;;;;;6213747;23;20701;-70
2022/07/20 03:54:17;;;;;;;4.50;4.10;;;29.90;50.70;;;;;;6214364;23;20378;-70
2022/07/20 03:56:45;;;;;;;4.80;4.40;;;29.90;50.70;;;;;;6214179;23;20462;-70
2022/07/20 03:59:11;;;;;;;4.63;4.17;;;29.90;50.70;;;;;;6162576;23;20422;-70
2022/07/20 04:01:40;;;;;;;7.37;4.40;;;29.90;50.70;;;;;;6187261;23;20375;-70
2022/07/20 04:04:09;;;;;;;4.30;3.90;;;29.90;50.80;;;;;;6212269;23;20372;-70
2022/07/20 04:06:37;;;;;;;4.87;4.47;;;29.90;50.80;;;;;;6187450;23;20550;-70
2022/07/20 04:09:03;;;;;;;6.90;4.67;;;29.80;50.70;;;;;;6211710;23;20854;-70
2022/07/20 04:11:32;;;;;;;4.53;4.00;;;29.90;50.80;;;;;;6162855;23;20403;-70
2022/07/20 04:14:02;;;;;;;4.90;4.40;;;29.80;50.70;;;;;;6162115;23;20167;-70
2022/07/20 04:16:31;;;;;;;4.53;4.13;;;29.80;50.80;;;;;;6213763;23;20378;-70
2022/07/20 04:18:57;;;;;;;4.10;3.80;;;29.80;50.70;;;;;;6162290;23;20423;-70
2022/07/20 04:21:25;;;;;;;4.90;4.40;;;29.80;50.80;;;;;;6163257;23;20517;-72
2022/07/20 04:23:53;;;;;;;5.30;4.80;;;29.70;50.80;;;;;;6214457;23;20171;-74
2022/07/20 04:26:19;;;;;;;4.33;4.03;;;29.70;50.70;;;;;;6187880;23;20395;-74
2022/07/20 04:28:48;;;;;;;4.80;4.40;;;29.70;50.80;;;;;;6187430;23;20363;-74
2022/07/20 04:31:14;;;;;;;5.53;4.77;;;29.70;50.80;;;;;;6187698;23;20414;-74
2022/07/20 04:33:40;;;;;;;4.60;4.20;;;29.70;50.80;;;;;;6187445;23;20368;-73
2022/07/20 04:36:06;;;;;;;4.63;4.23;;;29.70;50.90;;;;;;6187510;23;20145;-73
2022/07/20 04:38:37;;;;;;;4.50;4.10;;;29.70;50.90;;;;;;6187008;23;20359;-73
2022/07/20 04:41:08;;;;;;;4.10;3.80;;;29.70;50.90;;;;;;6187416;23;20514;-73
2022/07/20 04:43:34;;;;;;;7.03;4.20;;;29.70;51.00;;;;;;6214034;23;20830;-74
2022/07/20 04:46:07;;;;;;;4.60;3.87;;;29.60;50.90;;;;;;6187226;23;20388;-73
2022/07/20 04:48:35;;;;;;;4.77;4.37;;;29.60;51.00;;;;;;6162239;23;20731;-74
2022/07/20 04:51:03;;;;;;;4.57;4.17;;;29.60;51.00;;;;;;6214044;23;20402;-73
2022/07/20 04:53:29;;;;;;;4.90;4.50;;;29.60;51.10;;;;;;6187352;23;20375;-73
2022/07/20 04:56:13;;;;;;;5.17;4.40;;;29.60;51.10;;;;;;6186920;23;20398;-73
2022/07/20 04:58:41;;;;;;;4.57;4.13;;;29.50;51.30;;;;;;6186751;23;20379;-73
2022/07/20 05:01:12;;;;;;;5.67;4.93;;;29.50;51.00;;;;;;6186980;23;20407;-73
2022/07/20 05:03:38;;;;;;;6.73;4.80;;;29.50;50.90;;;;;;6137987;23;20367;-73
2022/07/20 05:06:04;;;;;;;7.10;5.20;;;29.50;50.90;;;;;;6213763;23;20418;-73
2022/07/20 05:08:32;;;;;;;5.10;4.53;;;29.50;50.80;;;;;;6186940;23;20594;-73
2022/07/20 05:10:58;;;;;;;6.43;5.70;;;29.40;50.70;;;;;;6186347;23;20406;-74
2022/07/20 05:13:24;;;;;;;6.23;5.63;;;29.40;50.60;;;;;;6163087;23;20823;-73
2022/07/20 05:15:51;;;;;;;5.70;5.20;;;29.40;50.60;;;;;;6212403;23;20424;-73
2022/07/20 05:18:21;;;;;;;5.60;5.10;;;29.40;50.60;;;;;;6186987;23;20477;-73
2022/07/20 05:20:51;;;;;;;6.30;5.00;;;29.40;50.60;;;;;;6163496;23;20419;-74
2022/07/20 05:23:19;;;;;;;6.10;5.50;;;29.40;50.50;;;;;;6187348;23;20766;-74
2022/07/20 05:25:49;;;;;;;6.83;6.23;;;29.30;50.50;;;;;;6187290;23;20470;-73
2022/07/20 05:28:20;;;;;;;8.73;6.40;;;29.30;50.50;;;;;;6187450;23;20359;-73
2022/07/20 05:30:47;;;;;;;8.73;5.80;;;29.30;50.40;;;;;;6162458;23;20406;-74
2022/07/20 05:33:16;;;;;;;7.77;7.00;;;29.30;50.60;;;;;;6162149;23;20478;-74
2022/07/20 05:35:44;;;;;;;7.03;6.33;;;29.30;50.60;;;;;;6162430;23;20847;-74
2022/07/20 05:38:10;;;;;;;6.80;6.27;;;29.30;50.70;;;;;;6214623;23;20877;-73
2022/07/20 05:40:36;;;;;;;8.03;6.57;;;29.20;50.60;;;;;;6188722;23;20484;-73
2022/07/20 05:43:08;;;;;;;7.50;6.70;;;29.30;50.80;;;;;;6215327;23;20454;-73
2022/07/20 05:45:34;;;;;;;6.60;5.93;;;29.20;50.80;;;;;;6189062;23;20437;-74
2022/07/20 05:48:05;;;;;;;9.17;7.60;;;29.20;50.80;;;;;;6163926;23;20371;-72
2022/07/20 05:50:38;;;;;;;8.93;7.97;;;29.20;50.90;;;;;;6212937;23;20399;-73
2022/07/20 05:53:05;;;;;;;8.00;7.20;;;29.20;50.90;;;;;;6214374;23;20368;-73
2022/07/20 05:55:32;;;;;;;7.37;6.67;;;29.20;51.00;;;;;;6163161;23;20403;-74
2022/07/20 05:57:58;;;;;;;9.03;8.03;;;29.20;51.00;;;;;;6188267;23;20847;-73
2022/07/20 06:00:24;;;;;;;7.23;6.63;;;29.20;51.10;;;;;;6212610;23;20485;-73
2022/07/20 06:02:50;;;;;;;8.03;7.33;;;29.20;51.10;;;;;;6214404;23;20367;-73
2022/07/20 06:05:18;;;;;;;9.10;8.20;;;29.20;51.10;;;;;;6188053;23;20418;-73
2022/07/20 06:07:44;;;;;;;7.27;6.67;;;29.20;51.20;;;;;;6213035;23;20419;-73
2022/07/20 06:10:10;;;;;;;9.00;7.60;;;29.20;51.30;;;;;;6214060;23;20434;-73
2022/07/20 06:12:39;;;;;;;8.57;7.73;;;29.10;51.20;;;;;;6215160;23;20400;-73
2022/07/20 06:15:06;;;;;;;8.30;7.70;;;29.10;51.30;;;;;;6163390;23;20391;-73
2022/07/20 06:17:35;;;;;;;10.00;9.20;;;29.10;51.40;;;;;;6212609;23;20754;-74
2022/07/20 06:20:06;;;;;;;10.67;9.60;;;29.10;51.40;;;;;;6188350;23;20486;-73
2022/07/20 06:22:34;;;;;;;10.47;9.40;;;29.20;51.50;;;;;;6188494;23;20885;-73
2022/07/20 06:25:08;;;;;;;11.23;10.23;;;29.10;51.60;;;;;;6213412;23;20411;-73
2022/07/20 06:27:39;;;;;;;10.57;9.50;;;29.10;51.70;;;;;;6188108;23;20873;-73
2022/07/20 06:30:09;;;;;;;10.20;9.10;;;29.10;51.70;;;;;;6212953;23;20418;-73
2022/07/20 06:32:35;;;;;;;9.40;8.63;;;29.10;51.80;;;;;;6213382;23;20449;-73
2022/07/20 06:35:04;;;;;;;12.77;11.43;;;29.10;51.80;;;;;;6188842;23;20372;-73
2022/07/20 06:37:30;;;;;;;10.80;9.80;;;29.10;51.90;;;;;;6212331;23;20415;-73
2022/07/20 06:39:56;;;;;;;11.07;9.67;;;29.10;52.00;;;;;;6187917;23;20442;-73
2022/07/20 06:42:25;;;;;;;11.13;10.07;;;29.10;52.00;;;;;;6214654;23;20367;-73
2022/07/20 06:44:53;;;;;;;11.77;10.77;;;29.10;52.10;;;;;;6188063;23;20394;-73
2022/07/20 06:47:22;;;;;;;12.97;11.60;;;29.10;52.10;;;;;;6214890;23;20371;-73
2022/07/20 06:49:48;;;;;;;14.30;13.10;;;29.00;52.10;;;;;;6213149;23;20490;-73
2022/07/20 06:52:16;;;;;;;14.20;12.90;;;29.10;52.30;;;;;;6213175;23;20417;-73
2022/07/20 06:54:43;;;;;;;14.37;12.97;;;29.00;52.30;;;;;;6211265;23;20415;-73
2022/07/20 06:57:11;;;;;;;14.33;12.90;;;29.10;52.60;;;;;;6212885;23;20694;-73
2022/07/20 06:59:37;;;;;;;15.40;14.00;;;29.10;52.50;;;;;;6161465;23;20960;-73
2022/07/20 07:02:12;;;;;;;17.33;15.70;;;29.10;52.70;;;;;;6163551;23;20407;-73
2022/07/20 07:04:38;;;;;;;14.43;13.03;;;29.10;52.80;;;;;;6213978;23;20383;-73
2022/07/20 07:07:07;;;;;;;15.60;14.20;;;29.00;52.80;;;;;;6214461;23;20861;-73
2022/07/20 07:09:35;;;;;;;15.63;14.20;;;29.10;52.80;;;;;;6187162;23;20399;-73
2022/07/20 07:12:01;;;;;;;15.00;13.57;;;29.10;52.90;;;;;;6212564;23;20896;-73
2022/07/20 07:14:30;;;;;;;15.47;14.03;;;29.00;52.80;;;;;;6162435;23;20418;-73
2022/07/20 07:16:58;;;;;;;15.00;13.60;;;29.10;52.80;;;;;;6214118;23;20378;-73
2022/07/20 07:19:26;;;;;;;14.80;13.50;;;29.00;52.80;;;;;;6186875;23;20430;-73
2022/07/20 07:21:54;;;;;;;16.90;15.27;;;29.00;52.80;;;;;;6162754;23;20952;-73
2022/07/20 07:24:20;;;;;;;17.23;15.67;;;29.00;52.90;;;;;;6162941;23;20371;-73
2022/07/20 07:26:48;;;;;;;17.03;15.30;;;29.10;53.00;;;;;;6188004;23;20367;-73
2022/07/20 07:29:19;;;;;;;19.30;14.93;;;29.10;52.90;;;;;;6162463;23;20870;-73
2022/07/20 07:31:46;;;;;;;17.23;15.73;;;29.10;53.10;;;;;;6187490;23;20387;-73
2022/07/20 07:34:14;;;;;;;16.50;15.10;;;29.10;53.10;;;;;;6187279;23;20881;-73
2022/07/20 07:36:40;;;;;;;17.63;16.13;;;29.10;53.10;;;;;;6162407;23;20387;-73
2022/07/20 07:39:07;;;;;;;18.00;16.50;;;29.10;53.20;;;;;;6211947;23;20453;-73
2022/07/20 07:41:33;;;;;;;20.03;18.13;;;29.10;53.30;;;;;;6187322;23;20474;-73
2022/07/20 07:44:01;;;;;;;18.93;17.27;;;29.10;53.40;;;;;;6212386;23;20392;-73
2022/07/20 07:46:29;;;;;;;23.87;18.60;;;29.10;53.40;;;;;;6162349;23;20914;-73
2022/07/20 07:48:58;;;;;;;18.63;16.83;;;29.10;53.60;;;;;;6187505;23;20785;-73
2022/07/20 07:51:29;;;;;;;21.70;19.47;;;29.10;53.60;;;;;;6186961;23;20663;-73
2022/07/20 07:53:58;;;;;;;20.27;18.17;;;29.20;53.80;;;;;;6187440;23;20407;-73
2022/07/20 07:56:26;;;;;;;21.13;19.03;;;29.10;54.10;;;;;;6187404;23;20371;-73
2022/07/20 07:58:55;;;;;;;20.87;19.00;;;29.20;54.10;;;;;;6213763;23;20446;-73
2022/07/20 08:01:21;;;;;;;21.23;19.17;;;29.10;54.00;;;;;;6186923;23;20421;-73
2022/07/20 08:03:47;;;;;;;22.07;19.87;;;29.20;54.00;;;;;;6186813;23;20363;-73
2022/07/20 08:06:13;;;;;;;20.93;19.03;;;29.20;54.00;;;;;;6213969;23;20711;-73
2022/07/20 08:08:39;;;;;;;20.63;18.83;;;29.20;54.10;;;;;;6162395;23;20866;-73
2022/07/20 08:11:05;;;;;;;21.37;19.50;;;29.20;54.10;;;;;;6213574;23;20403;-73
2022/07/20 08:13:34;;;;;;;22.17;20.00;;;29.20;54.20;;;;;;6211653;23;20411;-73
2022/07/20 08:16:04;;;;;;;24.07;21.70;;;29.20;54.20;;;;;;6186752;23;20368;-73
2022/07/20 08:18:30;;;;;;;23.27;20.87;;;29.20;54.30;;;;;;6161803;23;20466;-73
2022/07/20 08:20:58;;;;;;;23.50;21.20;;;29.20;54.20;;;;;;6186731;23;20438;-73
2022/07/20 08:23:24;;;;;;;23.73;21.60;;;29.20;54.30;;;;;;6162128;23;20958;-73
2022/07/20 08:25:52;;;;;;;23.03;20.93;;;29.20;54.40;;;;;;6213575;23;20387;-73
2022/07/20 08:28:22;;;;;;;23.10;20.80;;;29.30;54.50;;;;;;6161241;23;20886;-73
2022/07/20 08:30:52;;;;;;;22.63;20.43;;;29.30;54.60;;;;;;6161728;23;20442;-73
2022/07/20 08:33:23;;;;;;;22.50;20.30;;;29.30;54.60;;;;;;6213093;23;20399;-73
2022/07/20 08:35:51;;;;;;;23.70;21.30;;;29.30;54.70;;;;;;6213559;23;20772;-73
2022/07/20 08:38:18;;;;;;;23.10;20.90;;;29.30;54.70;;;;;;6211607;23;20402;-73
2022/07/20 08:40:46;;;;;;;22.10;20.20;;;29.30;54.70;;;;;;6187240;23;20427;-73
2022/07/20 08:43:13;;;;;;;21.90;19.80;;;29.30;54.70;;;;;;6186464;23;20364;-73
2022/07/20 08:45:39;;;;;;;22.27;20.00;;;29.30;54.70;;;;;;6213544;23;20382;-73
2022/07/20 08:48:11;;;;;;;22.70;20.80;;;29.30;54.60;;;;;;6212927;23;20375;-73
2022/07/20 08:50:39;;;;;;;24.80;22.57;;;29.30;54.70;;;;;;6213082;23;20407;-73
2022/07/20 08:53:10;;;;;;;22.23;20.10;;;29.40;54.80;;;;;;6186332;23;20997;-73
2022/07/20 08:55:36;;;;;;;21.93;19.83;;;29.40;54.80;;;;;;6211598;23;20398;-73
2022/07/20 08:58:04;;;;;;;22.20;20.20;;;29.40;54.80;;;;;;6138534;23;20844;-73
2022/07/20 09:00:30;;;;;;;23.67;20.80;;;29.40;54.90;;;;;;6186172;23;20937;-73
2022/07/20 09:03:03;;;;;;;20.87;19.07;;;29.40;54.90;;;;;;6162428;23;20372;-73
2022/07/20 09:05:33;;;;;;;21.80;19.80;;;29.40;55.00;;;;;;6162215;23;20376;-73
2022/07/20 09:08:00;;;;;;;21.87;19.87;;;29.50;55.00;;;;;;6213244;23;20366;-74
2022/07/20 09:10:35;;;;;;;22.07;20.00;;;29.50;55.00;;;;;;6161375;23;20486;-73
2022/07/20 09:13:12;;;;;;;21.40;19.50;;;29.50;55.10;;;;;;6138605;23;20513;-73
2022/07/20 09:15:45;;;;;;;22.67;20.33;;;29.50;55.00;;;;;;6188235;23;20444;-73
2022/07/20 09:18:20;;;;;;;21.00;19.10;;;29.50;55.10;;;;;;6164209;23;20478;-73
2022/07/20 09:21:04;;;;;;;23.00;20.27;;;29.60;55.20;;;;;;6214953;23;20909;-73
2022/07/20 09:23:47;;;;;;;22.67;20.57;;;29.60;55.20;;;;;;6188931;23;20442;-73
2022/07/20 09:26:19;;;;;;;21.27;19.27;;;29.60;55.30;;;;;;6189218;23;20363;-71
2022/07/20 09:28:49;;;;;;;22.30;20.37;;;29.60;55.80;;;;;;6213461;23;20483;-73
2022/07/20 09:31:19;;;;;;;21.30;19.20;;;29.60;55.20;;;;;;6214970;23;20387;-73
2022/07/20 09:34:15;;;;;;;21.40;19.20;;;29.70;55.30;;;;;;6213852;23;20391;-73
2022/07/20 09:36:46;;;;;;;22.70;20.60;;;29.70;55.20;;;;;;6189106;23;20403;-72
2022/07/20 09:39:19;;;;;;;21.70;19.70;;;29.70;55.80;;;;;;6214917;23;20442;-73
2022/07/20 09:41:56;;;;;;;18.93;17.23;;;29.80;55.30;;;;;;6188296;23;20506;-72
2022/07/20 09:44:32;;;;;;;21.37;19.37;;;29.80;55.50;;;;;;6188553;23;20368;-72
2022/07/20 09:46:58;;;;;;;21.67;19.60;;;29.80;55.20;;;;;;6188087;23;20866;-73
2022/07/20 09:49:36;;;;;;;20.40;18.43;;;29.80;55.20;;;;;;6213076;23;20383;-73
2022/07/20 09:52:03;;;;;;;21.20;19.30;;;29.80;55.20;;;;;;6213589;23;20398;-73
2022/07/20 09:54:29;;;;;;;20.40;18.50;;;29.90;55.30;;;;;;6163476;23;20476;-76
2022/07/20 09:56:56;;;;;;;21.57;19.40;;;29.90;55.20;;;;;;6188489;23;20382;-73
2022/07/20 09:59:22;;;;;;;20.57;18.60;;;29.90;55.20;;;;;;6213117;23;20477;-74
2022/07/20 10:01:53;;;;;;;21.90;19.00;;;29.90;55.30;;;;;;6213601;23;20411;-72
2022/07/20 10:04:23;;;;;;;21.40;19.40;;;29.90;55.30;;;;;;6188404;23;20698;-72
2022/07/20 10:06:51;;;;;;;19.83;17.93;;;30.00;55.40;;;;;;6188231;23;20399;-72
2022/07/20 10:09:17;;;;;;;20.80;18.77;;;30.00;55.40;;;;;;6161962;23;20371;-72
2022/07/20 10:11:48;;;;;;;18.30;16.60;;;30.00;55.40;;;;;;6214816;23;20371;-72
2022/07/20 10:14:18;;;;;;;18.87;17.07;;;30.10;55.40;;;;;;6214543;23;20936;-72
2022/07/20 10:16:52;;;;;;;18.80;17.00;;;30.10;55.40;;;;;;6214487;23;20367;-74
2022/07/20 10:19:47;;;;;;;19.93;18.23;;;30.10;55.40;;;;;;6163490;23;20426;-74
2022/07/20 10:22:16;;;;;;;19.07;17.37;;;30.10;55.40;;;;;;6188069;23;20402;-75
2022/07/20 10:24:47;;;;;;;18.13;16.50;;;30.10;55.40;;;;;;6214461;23;20442;-74
2022/07/20 10:27:16;;;;;;;19.63;17.53;;;30.10;55.40;;;;;;6214339;23;20360;-74
2022/07/20 10:29:50;;;;;;;18.87;17.00;;;30.20;55.50;;;;;;6163716;23;20411;-73
2022/07/20 10:32:24;;;;;;;19.60;17.80;;;30.20;55.60;;;;;;6139083;23;20395;-73
2022/07/20 10:35:03;;;;;;;18.10;16.50;;;30.20;55.60;;;;;;6188113;23;20406;-73
2022/07/20 10:37:43;;;;;;;19.70;18.00;;;30.20;55.50;;;;;;6164371;23;20355;-73
2022/07/20 10:40:23;;;;;;;20.73;18.83;;;30.20;55.50;;;;;;6162804;23;20435;-72
2022/07/20 10:43:04;;;;;;;19.73;18.03;;;30.30;55.60;;;;;;6188204;23;20421;-72
2022/07/20 10:45:31;;;;;;;19.63;17.80;;;30.30;55.60;;;;;;6214015;23;20375;-73
2022/07/20 10:48:01;;;;;;;19.70;17.97;;;30.30;55.60;;;;;;6186872;23;20375;-73
2022/07/20 10:50:37;;;;;;;18.17;16.50;;;30.40;55.70;;;;;;6187075;23;20407;-72
2022/07/20 10:53:15;;;;;;;19.80;17.90;;;30.30;55.60;;;;;;6212699;23;20426;-72
2022/07/20 10:55:41;;;;;;;19.40;17.53;;;30.40;55.60;;;;;;6188064;23;20762;-75
2022/07/20 10:58:14;;;;;;;20.80;18.90;;;30.40;55.60;;;;;;6164435;23;20383;-72
2022/07/20 11:00:43;;;;;;;19.03;17.27;;;30.50;55.60;;;;;;6188747;23;20453;-73
2022/07/20 11:03:18;;;;;;;18.23;16.30;;;30.50;55.60;;;;;;6213821;23;20805;-72
2022/07/20 11:05:49;;;;;;;19.03;17.23;;;30.50;55.60;;;;;;6214703;23;20371;-72
2022/07/20 11:08:15;;;;;;;18.90;17.00;;;30.50;55.60;;;;;;6163507;23;20394;-72
2022/07/20 11:10:44;;;;;;;18.20;16.57;;;30.50;55.60;;;;;;6164084;23;20427;-72
2022/07/20 11:13:14;;;;;;;19.17;17.47;;;30.50;55.60;;;;;;6187352;23;20422;-72
2022/07/20 11:15:46;;;;;;;18.70;16.90;;;30.60;55.60;;;;;;6214275;23;20403;-72
2022/07/20 11:18:15;;;;;;;19.17;17.57;;;30.60;55.70;;;;;;6212565;23;20397;-72
2022/07/20 11:20:46;;;;;;;19.60;17.37;;;30.60;55.70;;;;;;6212782;23;20925;-72
2022/07/20 11:23:16;;;;;;;18.63;16.83;;;30.70;55.70;;;;;;6187973;23;20395;-72
2022/07/20 11:25:56;;;;;;;17.90;16.33;;;30.70;55.60;;;;;;6162492;23;20480;-71
2022/07/20 11:28:26;;;;;;;18.83;16.80;;;30.70;55.60;;;;;;6213370;23;20402;-72
2022/07/20 11:30:54;;;;;;;18.40;16.67;;;30.70;55.50;;;;;;6187560;23;20937;-72
2022/07/20 11:33:34;;;;;;;17.83;15.80;;;30.70;55.50;;;;;;6187694;23;20376;-72
2022/07/20 11:36:03;;;;;;;17.40;15.87;;;30.80;55.50;;;;;;6162136;23;20880;-72
2022/07/20 11:38:43;;;;;;;18.43;16.63;;;30.80;55.50;;;;;;6162133;23;20399;-72
2022/07/20 11:41:16;;;;;;;17.70;16.20;;;30.80;55.50;;;;;;6162835;23;20502;-72
2022/07/20 11:43:44;;;;;;;16.37;15.07;;;30.90;55.50;;;;;;6187366;23;20461;-72
2022/07/20 11:46:14;;;;;;;17.87;16.27;;;30.90;55.40;;;;;;6188082;23;20355;-72
2022/07/20 11:48:51;;;;;;;17.13;15.63;;;30.90;55.30;;;;;;6187421;23;20403;-72
2022/07/20 11:51:17;;;;;;;16.63;15.13;;;30.90;55.20;;;;;;6211523;23;20402;-72
2022/07/20 11:53:46;;;;;;;17.00;15.40;;;31.00;55.20;;;;;;6213892;23;20414;-72
2022/07/20 11:56:17;;;;;;;15.80;14.20;;;31.00;55.10;;;;;;6212700;23;20368;-72
2022/07/20 11:58:50;;;;;;;16.97;15.50;;;31.00;55.70;;;;;;6162534;23;20371;-72
2022/07/20 12:01:25;;;;;;;17.13;15.53;;;31.10;55.10;;;;;;6213419;23;20452;-72
2022/07/20 12:03:55;;;;;;;15.37;14.00;;;31.10;55.10;;;;;;6162795;23;20402;-72
2022/07/20 12:06:22;;;;;;;16.40;14.90;;;31.10;55.00;;;;;;6214366;23;20368;-73
2022/07/20 12:09:32;;;;;;;15.13;13.80;;;31.20;55.00;;;;;;6162730;23;20843;-72
2022/07/20 12:12:44;;;;;;;15.70;14.17;;;31.20;55.00;;;;;;6016230;23;20478;-72
2022/07/20 12:14:56;;;;;;;15.73;14.33;;;31.20;54.90;;;;;;6186890;23;20379;-72
2022/07/20 12:17:31;;;;;;;16.53;14.83;;;31.20;54.80;;;;;;6211715;23;20387;-71
2022/07/20 12:19:58;;;;;;;16.20;14.80;;;31.30;54.80;;;;;;6213401;23;20918;-72
2022/07/20 12:22:27;;;;;;;15.37;14.03;;;31.30;54.70;;;;;;6162240;23;20431;-72
2022/07/20 12:24:56;;;;;;;15.33;13.87;;;31.30;54.60;;;;;;6213375;23;20374;-72
2022/07/20 12:27:27;;;;;;;15.13;13.80;;;31.30;54.50;;;;;;6213198;23;20710;-72
2022/07/20 12:29:54;;;;;;;14.43;13.30;;;31.30;54.40;;;;;;6213767;23;20498;-72
2022/07/20 12:32:34;;;;;;;13.70;12.50;;;31.40;54.50;;;;;;6186934;23;20419;-72
2022/07/20 12:35:04;;;;;;;14.97;13.60;;;31.40;54.40;;;;;;6212438;23;20857;-72
2022/07/20 12:37:52;;;;;;;15.23;13.70;;;31.40;54.40;;;;;;6162502;23;20405;-72
2022/07/20 12:40:43;;;;;;;14.87;13.57;;;31.40;54.30;;;;;;6190910;23;20433;-72
2022/07/20 12:43:30;;;;;;;12.63;11.60;;;31.50;54.30;;;;;;6162382;23;20391;-72
2022/07/20 12:45:59;;;;;;;14.67;13.37;;;31.50;54.30;;;;;;6186801;23;20399;-72
2022/07/20 12:48:28;;;;;;;14.50;13.13;;;31.50;54.20;;;;;;6188044;23;20387;-72
2022/07/20 12:50:56;;;;;;;14.10;12.53;;;31.50;54.20;;;;;;6164339;23;20407;-72
2022/07/20 12:53:23;;;;;;;13.40;12.23;;;31.50;54.20;;;;;;6189261;23;20371;-71